Terminal Aerodrome Forecast
Issued by NWS

Home | Current Version | Previous Version | Text Only | Print | Product List | Glossary Off
Versions: 1 2 3 4 5 6 7 8 9 10 11 12

000
FTUS43 KIWX 182324
TAFSBN
TAF
KSBN 182324Z 1900/1924 19010KT P6SM FEW250 WS020/22040KT
     FM191000 23006KT P6SM FEW250
     FM191600 29008KT P6SM FEW250=

USA.gov is the U.S. government's official web portal to all federal, state and local government web resources and services.